createdAt,value
2022-12-31T16:21:53.514Z,15.44
2022-12-31T16:22:52.334Z,15.4
2022-12-31T16:23:53.028Z,15.39
2022-12-31T16:25:36.157Z,15.36
2022-12-31T16:25:52.121Z,15.35
2022-12-31T16:26:52.427Z,15.36
2022-12-31T16:27:53.115Z,15.36
2022-12-31T16:28:52.683Z,15.39
2022-12-31T16:30:00.657Z,15.36
2022-12-31T16:30:52.870Z,15.42
2022-12-31T16:31:53.182Z,15.31
2022-12-31T16:32:53.084Z,15.37
2022-12-31T16:33:53.007Z,15.28
2022-12-31T16:34:52.954Z,15.33
2022-12-31T16:35:52.569Z,15.39
2022-12-31T16:36:53.105Z,15.31
2022-12-31T16:37:53.193Z,15.43
2022-12-31T16:38:52.738Z,15.33
2022-12-31T16:39:54.240Z,15.28
2022-12-31T16:40:53.599Z,15.35
2022-12-31T16:41:53.985Z,15.31
2022-12-31T16:42:53.080Z,15.29
2022-12-31T16:43:54.162Z,15.28
2022-12-31T16:44:53.030Z,15.24
2022-12-31T16:45:53.408Z,15.29
2022-12-31T16:46:52.792Z,15.33
2022-12-31T16:47:52.434Z,15.15
2022-12-31T16:48:53.257Z,15.28
2022-12-31T16:49:53.225Z,15.22
2022-12-31T16:50:52.978Z,15.27
2022-12-31T16:51:54.506Z,15.27
2022-12-31T16:52:53.224Z,15.22
2022-12-31T16:53:53.539Z,15.31
2022-12-31T16:54:53.338Z,15.35
2022-12-31T16:55:52.856Z,15.46
2022-12-31T16:56:53.767Z,15.54
2022-12-31T16:57:52.836Z,15.55
2022-12-31T16:58:53.155Z,15.54
2022-12-31T16:59:53.499Z,15.54
2022-12-31T17:00:54.262Z,15.55
2022-12-31T17:01:53.456Z,15.55
2022-12-31T17:02:53.373Z,15.51
2022-12-31T17:03:53.157Z,15.62
2022-12-31T17:05:00.635Z,15.58
2022-12-31T17:05:53.175Z,15.52
2022-12-31T17:06:52.936Z,15.61
2022-12-31T17:07:53.419Z,15.55
2022-12-31T17:08:53.484Z,15.51
2022-12-31T17:09:53.626Z,15.49
2022-12-31T17:10:52.981Z,15.55
2022-12-31T17:11:53.398Z,15.65
2022-12-31T17:13:32.768Z,15.65
2022-12-31T17:13:53.500Z,15.72
2022-12-31T17:14:53.669Z,15.65
2022-12-31T17:15:54.179Z,15.67
2022-12-31T17:17:02.046Z,15.65
2022-12-31T17:17:53.687Z,15.65
2022-12-31T17:18:53.096Z,15.65
2022-12-31T17:19:53.385Z,15.64
2022-12-31T17:20:54.072Z,15.57
2022-12-31T17:21:53.183Z,15.65
2022-12-31T17:22:53.389Z,15.59
2022-12-31T17:23:53.207Z,15.58
2022-12-31T17:24:53.462Z,15.54
2022-12-31T17:25:53.808Z,15.65
2022-12-31T17:26:53.479Z,15.61
2022-12-31T17:27:52.960Z,15.58
2022-12-31T17:28:53.963Z,15.68
2022-12-31T17:29:52.980Z,15.59
2022-12-31T17:30:54.136Z,15.67
2022-12-31T17:31:54.490Z,15.59
2022-12-31T17:32:53.265Z,15.65
2022-12-31T17:33:54.056Z,15.7
2022-12-31T17:34:53.632Z,15.57
2022-12-31T17:35:53.568Z,15.64
2022-12-31T17:36:55.429Z,15.55
2022-12-31T17:37:53.627Z,15.55
2022-12-31T17:38:53.235Z,15.49
2022-12-31T17:39:54.210Z,15.42
2022-12-31T17:40:56.982Z,15.35
2022-12-31T17:41:55.770Z,15.4
2022-12-31T17:42:54.723Z,15.4
2022-12-31T17:43:54.983Z,15.42
2022-12-31T17:44:55.619Z,15.37
2022-12-31T17:45:55.022Z,15.36
2022-12-31T17:46:55.581Z,15.31
2022-12-31T17:47:55.686Z,15.33
2022-12-31T17:48:55.387Z,15.43
2022-12-31T17:49:56.052Z,15.35
2022-12-31T17:50:55.351Z,15.46
2022-12-31T17:51:55.371Z,15.46
2022-12-31T17:52:55.937Z,15.47
2022-12-31T17:53:55.400Z,15.44
2022-12-31T17:54:55.394Z,15.35
2022-12-31T17:55:56.163Z,15.29
2022-12-31T17:56:55.551Z,15.33
2022-12-31T17:57:55.688Z,15.25
2022-12-31T17:58:55.493Z,15.27
2022-12-31T17:59:56.103Z,15.33
2022-12-31T18:00:55.943Z,15.27
2022-12-31T18:01:56.576Z,15.27
2022-12-31T18:02:55.987Z,15.33
